Time;durP1;ratioP1;P1;durP2;ratioP2;P2;SDS_P1;SDS_P2;PMS_P1;PMS_P2;Temp;Humidity;BMP_temperature;BMP_pressure;BME280_temperature;BME280_humidity;BME280_pressure;Samples;Min_cycle;Max_cycle;Signal;HPM_P1;HPM_P2
2022/06/23 00:02:02;;;;;;;2.60;1.20;;;;;;;;;;5130889;28;20443;-83
2022/06/23 00:04:32;;;;;;;3.55;1.60;;;;;;;;;;5128358;28;20023;-83
2022/06/23 00:07:05;;;;;;;4.00;1.60;;;;;;;;;;5132272;28;20019;-84
2022/06/23 00:09:45;;;;;;;2.85;1.90;;;;;;;;;;5128268;28;20058;-83
2022/06/23 00:12:21;;;;;;;2.10;1.52;;;;;;;;;;5130882;28;20034;-83
2022/06/23 00:14:54;;;;;;;3.38;1.73;;;;;;;;;;5134011;27;20027;-83
2022/06/23 00:17:30;;;;;;;4.45;2.25;;;;;;;;;;5134015;27;20495;-82
2022/06/23 00:19:59;;;;;;;3.10;1.70;;;;;;;;;;5132660;27;20042;-82
2022/06/23 00:22:28;;;;;;;5.28;2.05;;;;;;;;;;5132549;27;20026;-82
2022/06/23 00:24:56;;;;;;;3.13;1.80;;;;;;;;;;5134115;27;20664;-82
2022/06/23 00:27:30;;;;;;;6.00;2.55;;;;;;;;;;5133034;27;20046;-82
2022/06/23 00:30:00;;;;;;;3.08;2.45;;;;;;;;;;5133760;27;20016;-83
2022/06/23 00:32:26;;;;;;;;;;;;;;;;;;5134824;27;20039;-82
2022/06/23 00:35:05;;;;;;;2.83;2.00;;;;;;;;;;5135960;27;19953;-81
2022/06/23 00:37:31;;;;;;;2.70;1.85;;;;;;;;;;5135383;27;20034;-82
2022/06/23 00:39:57;;;;;;;3.53;1.92;;;;;;;;;;5112308;27;20052;-83
2022/06/23 00:42:35;;;;;;;3.33;2.00;;;;;;;;;;5106157;28;20043;-83
2022/06/23 00:45:04;;;;;;;3.10;2.03;;;;;;;;;;5095937;28;20475;-83
2022/06/23 00:47:48;;;;;;;3.30;1.90;;;;;;;;;;5109732;28;20024;-82
2022/06/23 00:50:29;;;;;;;5.07;2.38;;;;;;;;;;5104306;28;20024;-84
2022/06/23 00:53:06;;;;;;;3.45;2.00;;;;;;;;;;5105241;28;20035;-85
2022/06/23 00:55:34;;;;;;;2.80;1.70;;;;;;;;;;5100847;28;20032;-85
2022/06/23 00:58:05;;;;;;;3.65;1.70;;;;;;;;;;5105718;28;20110;-86
2022/06/23 01:00:36;;;;;;;3.00;1.70;;;;;;;;;;5104359;28;20504;-85
2022/06/23 01:03:33;;;;;;;4.03;2.35;;;;;;;;;;5106637;28;20495;-86
2022/06/23 01:06:10;;;;;;;3.22;1.80;;;;;;;;;;5110621;28;20028;-85
2022/06/23 01:08:51;;;;;;;3.70;1.90;;;;;;;;;;5106123;28;20524;-84
2022/06/23 01:11:21;;;;;;;4.53;2.10;;;;;;;;;;5105699;28;20106;-86
2022/06/23 01:13:55;;;;;;;3.25;2.10;;;;;;;;;;5090368;28;20104;-85
2022/06/23 01:16:26;;;;;;;2.63;1.90;;;;;;;;;;5104358;28;20036;-85
2022/06/23 01:19:03;;;;;;;3.53;2.25;;;;;;;;;;5085148;28;20024;-86
2022/06/23 01:21:36;;;;;;;4.60;2.30;;;;;;;;;;5103684;28;20096;-85
2022/06/23 01:24:12;;;;;;;3.33;1.90;;;;;;;;;;5079721;28;20035;-87
2022/06/23 01:26:47;;;;;;;3.33;1.98;;;;;;;;;;5083092;28;20024;-84
2022/06/23 01:29:43;;;;;;;3.40;1.92;;;;;;;;;;5100909;28;20032;-87
2022/06/23 01:32:35;;;;;;;2.20;1.90;;;;;;;;;;5085452;28;20087;-84
2022/06/23 01:35:13;;;;;;;2.42;2.03;;;;;;;;;;5111307;28;20015;-86
2022/06/23 01:37:50;;;;;;;3.42;2.30;;;;;;;;;;5094936;28;20141;-87
2022/06/23 01:40:20;;;;;;;3.15;2.03;;;;;;;;;;5113979;28;20035;-85
2022/06/23 01:43:10;;;;;;;2.63;2.13;;;;;;;;;;5108545;28;20036;-86
2022/06/23 01:45:46;;;;;;;3.00;2.13;;;;;;;;;;5085350;28;20103;-86
2022/06/23 01:48:15;;;;;;;3.95;2.40;;;;;;;;;;5106687;28;20403;-86
2022/06/23 01:50:53;;;;;;;3.97;2.20;;;;;;;;;;5090860;28;20028;-86
2022/06/23 01:53:33;;;;;;;2.88;2.15;;;;;;;;;;5101320;28;20424;-86
2022/06/23 01:56:17;;;;;;;3.70;1.90;;;;;;;;;;5109191;28;20040;-85
2022/06/23 01:58:53;;;;;;;2.88;2.20;;;;;;;;;;5103677;28;20020;-85
2022/06/23 02:01:43;;;;;;;3.35;2.20;;;;;;;;;;5105203;28;20020;-86
2022/06/23 02:04:20;;;;;;;3.60;2.70;;;;;;;;;;5112525;28;20019;-87
2022/06/23 02:07:05;;;;;;;3.85;2.53;;;;;;;;;;5107860;28;20027;-85
2022/06/23 02:09:52;;;;;;;4.00;2.20;;;;;;;;;;5091236;28;20493;-86
2022/06/23 02:12:35;;;;;;;2.60;2.10;;;;;;;;;;5111977;28;20429;-84
2022/06/23 02:15:23;;;;;;;3.85;2.50;;;;;;;;;;5111344;28;20019;-83
2022/06/23 02:18:17;;;;;;;2.75;2.30;;;;;;;;;;5111009;28;20031;-85
2022/06/23 02:20:53;;;;;;;3.95;2.17;;;;;;;;;;5103680;28;20488;-86
2022/06/23 02:23:37;;;;;;;2.67;2.38;;;;;;;;;;5110663;28;20027;-86
2022/06/23 02:26:31;;;;;;;4.75;2.60;;;;;;;;;;5110232;28;20516;-84
2022/06/23 02:29:15;;;;;;;3.75;2.30;;;;;;;;;;5096178;28;20550;-84
2022/06/23 02:32:03;;;;;;;3.85;2.42;;;;;;;;;;5103656;28;20388;-87
2022/06/23 02:34:36;;;;;;;5.50;2.60;;;;;;;;;;5107319;28;20102;-86
2022/06/23 02:37:39;;;;;;;3.28;2.30;;;;;;;;;;5109612;28;20455;-84
2022/06/23 02:40:14;;;;;;;3.72;2.55;;;;;;;;;;5107381;28;20482;-83
2022/06/23 02:42:40;;;;;;;3.47;2.40;;;;;;;;;;5111911;28;20028;-83
2022/06/23 02:45:15;;;;;;;3.30;2.42;;;;;;;;;;5111394;28;20399;-84
2022/06/23 02:48:02;;;;;;;4.68;2.70;;;;;;;;;;5108559;28;20026;-85
2022/06/23 02:50:28;;;;;;;3.20;2.47;;;;;;;;;;5109727;28;20029;-85
2022/06/23 02:53:28;;;;;;;3.78;2.53;;;;;;;;;;5108931;28;20098;-85
2022/06/23 02:56:09;;;;;;;3.75;2.63;;;;;;;;;;5107837;27;20040;-84
2022/06/23 02:59:17;;;;;;;3.70;2.50;;;;;;;;;;5110953;28;20036;-85
2022/06/23 03:01:51;;;;;;;4.22;2.65;;;;;;;;;;5109314;28;20039;-83
2022/06/23 03:04:40;;;;;;;2.90;2.60;;;;;;;;;;5111970;28;20019;-85
2022/06/23 03:07:27;;;;;;;3.17;2.58;;;;;;;;;;5106831;28;20020;-85
2022/06/23 03:10:10;;;;;;;3.00;2.50;;;;;;;;;;5092657;28;20027;-85
2022/06/23 03:13:10;;;;;;;3.00;2.60;;;;;;;;;;5090817;28;20483;-84
2022/06/23 03:15:47;;;;;;;3.08;2.60;;;;;;;;;;5103234;28;20054;-85
2022/06/23 03:18:24;;;;;;;2.88;2.30;;;;;;;;;;5110300;28;20024;-85
2022/06/23 03:21:03;;;;;;;4.05;2.50;;;;;;;;;;5110911;28;20831;-85
2022/06/23 03:23:48;;;;;;;3.17;2.47;;;;;;;;;;5108997;28;20480;-86
2022/06/23 03:26:45;;;;;;;3.97;2.35;;;;;;;;;;5092316;28;20185;-87
2022/06/23 03:29:16;;;;;;;3.90;2.45;;;;;;;;;;5108840;28;20412;-83
2022/06/23 03:32:04;;;;;;;3.30;2.55;;;;;;;;;;5106648;28;20036;-84
2022/06/23 03:34:38;;;;;;;3.00;2.22;;;;;;;;;;5110131;28;20382;-86
2022/06/23 03:37:11;;;;;;;2.70;2.10;;;;;;;;;;5091294;28;20035;-87
2022/06/23 03:42:34;;;;;;;3.78;2.88;;;;;;;;;;5107997;28;20083;-83
2022/06/23 03:45:20;;;;;;;3.17;2.28;;;;;;;;;;5108633;28;20068;-83
2022/06/23 03:47:59;;;;;;;3.63;2.50;;;;;;;;;;5108950;28;20059;-83
2022/06/23 03:50:33;;;;;;;3.15;2.55;;;;;;;;;;5108385;28;20031;-85
2022/06/23 03:53:03;;;;;;;2.60;2.20;;;;;;;;;;5091953;28;20041;-86
2022/06/23 03:55:36;;;;;;;2.90;2.38;;;;;;;;;;5108071;28;20027;-84
2022/06/23 03:58:13;;;;;;;3.28;2.67;;;;;;;;;;5105418;28;20036;-84
2022/06/23 04:00:45;;;;;;;4.03;2.35;;;;;;;;;;5100956;28;20019;-85
2022/06/23 04:03:20;;;;;;;3.58;2.40;;;;;;;;;;5107759;28;20175;-84
2022/06/23 04:05:54;;;;;;;3.85;2.30;;;;;;;;;;5091747;28;20134;-84
2022/06/23 04:08:21;;;;;;;2.53;2.20;;;;;;;;;;5104088;28;20074;-84
2022/06/23 04:10:48;;;;;;;4.00;2.55;;;;;;;;;;5098823;28;20387;-84
2022/06/23 04:13:29;;;;;;;3.40;2.70;;;;;;;;;;5095977;28;20028;-85
2022/06/23 04:16:04;;;;;;;3.20;2.45;;;;;;;;;;5104359;28;20023;-84
2022/06/23 04:18:31;;;;;;;4.78;2.53;;;;;;;;;;5108673;28;20027;-86
2022/06/23 04:21:03;;;;;;;3.95;2.90;;;;;;;;;;5100561;28;20020;-84
2022/06/23 04:23:43;;;;;;;3.10;2.40;;;;;;;;;;5099850;28;20028;-85
2022/06/23 04:26:14;;;;;;;;;;;;;;;;;;5109911;28;20027;-83
2022/06/23 04:28:44;;;;;;;3.75;2.75;;;;;;;;;;5084444;28;19912;-84
2022/06/23 04:31:16;;;;;;;4.20;2.67;;;;;;;;;;5107500;28;20539;-85
2022/06/23 04:33:43;;;;;;;4.63;2.40;;;;;;;;;;5110553;28;20464;-83
2022/06/23 04:36:21;;;;;;;3.55;2.70;;;;;;;;;;5111286;28;20045;-83
2022/06/23 04:38:52;;;;;;;4.07;2.55;;;;;;;;;;5109430;28;20039;-84
2022/06/23 04:41:29;;;;;;;2.90;2.60;;;;;;;;;;5078528;28;20376;-85
2022/06/23 04:44:08;;;;;;;2.95;2.25;;;;;;;;;;5108776;28;20055;-84
2022/06/23 04:46:53;;;;;;;2.97;2.25;;;;;;;;;;5090705;28;20042;-85
2022/06/23 04:49:36;;;;;;;3.10;2.50;;;;;;;;;;5105887;28;20471;-83
2022/06/23 04:52:16;;;;;;;3.67;2.60;;;;;;;;;;5109185;28;20492;-85
2022/06/23 04:54:55;;;;;;;3.08;2.63;;;;;;;;;;5091853;28;20027;-85
2022/06/23 04:57:25;;;;;;;3.07;2.40;;;;;;;;;;5108871;28;20536;-86
2022/06/23 04:59:52;;;;;;;;;;;;;;;;;;5110308;28;20026;-84
2022/06/23 05:02:39;;;;;;;3.95;2.55;;;;;;;;;;5113700;28;19915;-84
2022/06/23 05:05:19;;;;;;;3.20;2.40;;;;;;;;;;5113246;28;20375;-85
2022/06/23 05:08:12;;;;;;;2.85;2.22;;;;;;;;;;5094722;28;20034;-84
2022/06/23 05:10:47;;;;;;;2.60;2.00;;;;;;;;;;5096020;28;20483;-85
2022/06/23 05:13:24;;;;;;;2.67;2.30;;;;;;;;;;5111668;28;20076;-85
2022/06/23 05:16:11;;;;;;;2.70;2.10;;;;;;;;;;5113503;28;20095;-85
2022/06/23 05:18:45;;;;;;;3.33;2.00;;;;;;;;;;5111856;28;20411;-84
2022/06/23 05:21:20;;;;;;;3.97;2.78;;;;;;;;;;5113289;28;20084;-85
2022/06/23 05:23:48;;;;;;;3.00;2.20;;;;;;;;;;5110654;28;20139;-85
2022/06/23 05:26:19;;;;;;;3.92;2.30;;;;;;;;;;5113076;28;20022;-86
2022/06/23 05:28:51;;;;;;;2.97;2.35;;;;;;;;;;5092961;28;20031;-85
2022/06/23 05:31:22;;;;;;;2.83;2.40;;;;;;;;;;5111037;28;20495;-85
2022/06/23 05:33:52;;;;;;;4.32;2.55;;;;;;;;;;5109640;28;20356;-86
2022/06/23 05:36:24;;;;;;;4.25;2.90;;;;;;;;;;5106742;28;20056;-84
2022/06/23 05:39:04;;;;;;;4.38;3.10;;;;;;;;;;5110504;28;20058;-83
2022/06/23 05:41:35;;;;;;;;;;;;;;;;;;5112005;28;20459;-83
2022/06/23 05:44:07;;;;;;;4.13;3.10;;;;;;;;;;5093732;28;19911;-83
2022/06/23 05:46:36;;;;;;;6.68;3.38;;;;;;;;;;5110193;28;20039;-84
2022/06/23 05:49:15;;;;;;;4.78;3.22;;;;;;;;;;5111261;28;20029;-83
2022/06/23 05:52:05;;;;;;;5.63;3.25;;;;;;;;;;5110128;28;20034;-87
2022/06/23 05:54:49;;;;;;;;;;;;;;;;;;5093562;28;20023;-82
2022/06/23 05:58:02;;;;;;;6.70;3.30;;;;;;;;;;5111494;28;19962;-83
2022/06/23 06:00:31;;;;;;;24.08;5.70;;;;;;;;;;5093191;28;20495;-87
2022/06/23 06:03:24;;;;;;;0.28;0.28;;;;;;;;;;5113727;27;20115;-85
2022/06/23 06:05:57;;;;;;;0.30;0.30;;;;;;;;;;5095638;28;20072;-86
2022/06/23 06:08:28;;;;;;;0.00;0.00;;;;;;;;;;5109769;28;20027;-84
2022/06/23 06:10:55;;;;;;;0.15;0.15;;;;;;;;;;5095335;28;20045;-86
2022/06/23 06:13:32;;;;;;;0.25;0.25;;;;;;;;;;5096621;28;20020;-85
2022/06/23 06:16:00;;;;;;;0.00;0.00;;;;;;;;;;5096664;28;20027;-86
2022/06/23 06:18:30;;;;;;;0.00;0.00;;;;;;;;;;5096044;28;20144;-86
2022/06/23 06:20:59;;;;;;;0.08;0.05;;;;;;;;;;5094683;28;20544;-86
2022/06/23 06:23:48;;;;;;;0.00;0.00;;;;;;;;;;5094172;28;20028;-86
2022/06/23 06:26:18;;;;;;;0.00;0.00;;;;;;;;;;5095468;28;20032;-88
2022/06/23 06:28:44;;;;;;;0.00;0.00;;;;;;;;;;5095668;28;20024;-87
2022/06/23 06:31:09;;;;;;;0.00;0.00;;;;;;;;;;5116341;28;20536;-90
2022/06/23 06:33:45;;;;;;;0.00;0.00;;;;;;;;;;5113660;27;20471;-90
2022/06/23 06:36:24;;;;;;;0.30;0.28;;;;;;;;;;5112137;28;20019;-89
2022/06/23 06:38:50;;;;;;;0.00;0.00;;;;;;;;;;5095518;28;20047;-88
2022/06/23 06:41:16;;;;;;;0.00;0.00;;;;;;;;;;5095330;28;20030;-89
2022/06/23 06:43:41;;;;;;;0.95;0.95;;;;;;;;;;5111808;28;20081;-88
2022/06/23 06:46:06;;;;;;;0.88;0.88;;;;;;;;;;5110032;27;20023;-88
2022/06/23 06:48:38;;;;;;;0.00;0.00;;;;;;;;;;5092586;27;20126;-88
2022/06/23 06:51:11;;;;;;;0.00;0.00;;;;;;;;;;5089198;28;20508;-85
2022/06/23 06:53:43;;;;;;;0.00;0.00;;;;;;;;;;5094563;28;20020;-87
2022/06/23 06:56:24;;;;;;;0.00;0.00;;;;;;;;;;5110201;28;20095;-87
2022/06/23 06:59:23;;;;;;;0.03;0.03;;;;;;;;;;5093809;28;20030;-87
2022/06/23 07:02:11;;;;;;;0.00;0.00;;;;;;;;;;5091821;28;20384;-88
2022/06/23 07:05:02;;;;;;;0.00;0.00;;;;;;;;;;5110728;28;20593;-88
2022/06/23 07:07:37;;;;;;;0.00;0.00;;;;;;;;;;5099804;28;20027;-90
2022/06/23 07:10:25;;;;;;;0.25;0.25;;;;;;;;;;5109293;27;20028;-88
2022/06/23 07:12:57;;;;;;;0.00;0.00;;;;;;;;;;5113171;28;20128;-90
2022/06/23 07:16:00;;;;;;;0.00;0.00;;;;;;;;;;5114487;28;20026;-90
2022/06/23 07:18:38;;;;;;;0.00;0.00;;;;;;;;;;5082912;28;20114;-89
2022/06/23 07:21:03;;;;;;;0.00;0.00;;;;;;;;;;5114012;28;20385;-89
2022/06/23 07:23:35;;;;;;;0.00;0.00;;;;;;;;;;5115455;28;20049;-89
2022/06/23 07:26:37;;;;;;;0.70;0.20;;;;;;;;;;5096817;28;20046;-86
2022/06/23 07:29:38;;;;;;;0.00;0.00;;;;;;;;;;5112677;28;20456;-89
2022/06/23 07:32:16;;;;;;;0.00;0.00;;;;;;;;;;5085974;28;20040;-88
2022/06/23 07:34:55;;;;;;;0.00;0.00;;;;;;;;;;5096018;28;20483;-89
2022/06/23 07:37:41;;;;;;;0.00;0.00;;;;;;;;;;5092548;28;20024;-88
2022/06/23 07:40:09;;;;;;;0.75;0.40;;;;;;;;;;5112865;28;20040;-88
2022/06/23 07:42:49;;;;;;;0.00;0.00;;;;;;;;;;5097381;28;20027;-89
2022/06/23 07:45:21;;;;;;;0.10;0.10;;;;;;;;;;5092950;28;20080;-87
2022/06/23 07:47:47;;;;;;;0.88;0.43;;;;;;;;;;5093630;28;20031;-87
2022/06/23 07:50:13;;;;;;;0.43;0.43;;;;;;;;;;5112212;28;20023;-87
2022/06/23 07:52:40;;;;;;;0.00;0.00;;;;;;;;;;5110903;28;20388;-87
2022/06/23 07:55:18;;;;;;;0.00;0.00;;;;;;;;;;5110730;28;20031;-88
2022/06/23 07:57:44;;;;;;;0.00;0.00;;;;;;;;;;5110788;28;20487;-85
2022/06/23 08:00:10;;;;;;;0.03;0.03;;;;;;;;;;5107864;28;20072;-86
2022/06/23 08:02:35;;;;;;;0.10;0.10;;;;;;;;;;5094016;28;20055;-85
2022/06/23 08:05:19;;;;;;;0.00;0.00;;;;;;;;;;5090382;28;20461;-86
2022/06/23 08:07:46;;;;;;;0.10;0.10;;;;;;;;;;5110714;28;20417;-88
2022/06/23 08:10:17;;;;;;;0.00;0.00;;;;;;;;;;5092465;28;20051;-85
2022/06/23 08:13:11;;;;;;;0.20;0.20;;;;;;;;;;5092890;28;20024;-85
2022/06/23 08:18:50;;;;;;;0.10;0.10;;;;;;;;;;5109038;28;20387;-85
2022/06/23 08:21:19;;;;;;;0.55;0.43;;;;;;;;;;5089954;28;20024;-89
2022/06/23 08:23:52;;;;;;;0.00;0.00;;;;;;;;;;5090641;28;20499;-84
2022/06/23 08:26:20;;;;;;;0.00;0.00;;;;;;;;;;5092570;28;20387;-88
2022/06/23 08:28:48;;;;;;;0.05;0.05;;;;;;;;;;5124424;28;20424;-85
2022/06/23 08:31:16;;;;;;;0.00;0.00;;;;;;;;;;5091880;28;20379;-85
2022/06/23 08:33:41;;;;;;;0.00;0.00;;;;;;;;;;5092913;28;20491;-85
2022/06/23 08:36:13;;;;;;;0.65;0.55;;;;;;;;;;5092712;28;20131;-84
2022/06/23 08:38:44;;;;;;;0.00;0.00;;;;;;;;;;5114222;28;20050;-87
2022/06/23 08:41:21;;;;;;;0.20;0.20;;;;;;;;;;5110143;28;20450;-84
2022/06/23 08:44:09;;;;;;;0.75;0.30;;;;;;;;;;5093734;28;20031;-83
2022/06/23 08:46:40;;;;;;;0.08;0.08;;;;;;;;;;5114477;28;20488;-88
2022/06/23 08:49:23;;;;;;;0.10;0.10;;;;;;;;;;5096156;28;20103;-88
2022/06/23 08:52:08;;;;;;;0.10;0.10;;;;;;;;;;5112935;28;20039;-86
2022/06/23 08:54:40;;;;;;;0.00;0.00;;;;;;;;;;5095638;28;20028;-88
2022/06/23 08:57:16;;;;;;;0.05;0.05;;;;;;;;;;5112871;27;20034;-86
2022/06/23 09:00:09;;;;;;;0.10;0.10;;;;;;;;;;5111621;27;20087;-86
2022/06/23 09:02:58;;;;;;;0.05;0.05;;;;;;;;;;5080886;28;20445;-85
2022/06/23 09:05:36;;;;;;;;;;;;;;;;;;5111745;28;20384;-86
2022/06/23 09:08:24;;;;;;;0.30;0.20;;;;;;;;;;5114805;28;19912;-86
2022/06/23 09:10:55;;;;;;;0.38;0.38;;;;;;;;;;5111531;27;20103;-85
2022/06/23 09:13:24;;;;;;;0.00;0.00;;;;;;;;;;5115160;28;20027;-84
2022/06/23 09:16:08;;;;;;;0.30;0.30;;;;;;;;;;5094202;28;20023;-86
2022/06/23 09:18:47;;;;;;;0.00;0.00;;;;;;;;;;5094196;28;20031;-86
2022/06/23 09:21:31;;;;;;;;;;;;;;;;;;5115316;28;20024;-86
2022/06/23 09:24:15;;;;;;;0.20;0.20;;;;;;;;;;5112974;28;19966;-84
2022/06/23 09:27:05;;;;;;;0.50;0.50;;;;;;;;;;5113427;28;20078;-85
2022/06/23 09:29:57;;;;;;;0.30;0.30;;;;;;;;;;5114712;28;20607;-85
2022/06/23 09:32:38;;;;;;;0.00;0.00;;;;;;;;;;5111682;28;20077;-85
2022/06/23 09:35:23;;;;;;;0.10;0.10;;;;;;;;;;5075590;28;20169;-88
2022/06/23 09:38:19;;;;;;;0.30;0.20;;;;;;;;;;5089981;28;20380;-87
2022/06/23 09:41:18;;;;;;;0.32;0.22;;;;;;;;;;5092672;28;20056;-87
2022/06/23 09:44:21;;;;;;;0.08;0.08;;;;;;;;;;5079687;28;20023;-89
2022/06/23 09:46:52;;;;;;;0.08;0.08;;;;;;;;;;5099412;28;20028;-85
2022/06/23 09:49:47;;;;;;;0.20;0.20;;;;;;;;;;5109276;28;20077;-85
2022/06/23 09:52:19;;;;;;;0.80;0.65;;;;;;;;;;5091759;28;20031;-86
2022/06/23 09:55:11;;;;;;;0.30;0.30;;;;;;;;;;5105191;28;20096;-86
2022/06/23 09:58:18;;;;;;;0.20;0.20;;;;;;;;;;5109105;28;20383;-88
2022/06/23 10:00:46;;;;;;;0.00;0.00;;;;;;;;;;4995827;28;20022;-84
2022/06/23 10:03:38;;;;;;;0.25;0.25;;;;;;;;;;5013595;28;20141;-86
2022/06/23 10:06:10;;;;;;;0.55;0.55;;;;;;;;;;5070803;28;20380;-85
2022/06/23 10:09:03;;;;;;;0.47;0.47;;;;;;;;;;5104816;27;20451;-86
2022/06/23 10:11:56;;;;;;;0.00;0.00;;;;;;;;;;5113449;27;20027;-87
2022/06/23 10:14:36;;;;;;;0.10;0.10;;;;;;;;;;5112767;28;20368;-88
2022/06/23 10:17:04;;;;;;;0.08;0.08;;;;;;;;;;5113581;28;20028;-91
2022/06/23 10:19:49;;;;;;;0.15;0.15;;;;;;;;;;5094979;28;20088;-88
2022/06/23 10:22:59;;;;;;;0.55;0.45;;;;;;;;;;5094444;28;20023;-88
2022/06/23 10:25:49;;;;;;;0.00;0.00;;;;;;;;;;5070878;28;20032;-85
2022/06/23 10:28:35;;;;;;;0.10;0.10;;;;;;;;;;5094262;28;20365;-87
2022/06/23 10:31:22;;;;;;;0.15;0.15;;;;;;;;;;5088929;28;20031;-90
2022/06/23 10:34:33;;;;;;;0.00;0.00;;;;;;;;;;5108137;28;20501;-88
2022/06/23 10:37:05;;;;;;;0.28;0.28;;;;;;;;;;5114100;28;20020;-87
2022/06/23 10:39:48;;;;;;;1.00;1.00;;;;;;;;;;5094087;28;20036;-87
2022/06/23 10:42:29;;;;;;;0.00;0.00;;;;;;;;;;5095141;28;20039;-88
2022/06/23 10:45:16;;;;;;;0.50;0.50;;;;;;;;;;5107153;28;20475;-87
2022/06/23 10:47:59;;;;;;;0.40;0.30;;;;;;;;;;5109745;28;20106;-88
2022/06/23 10:50:49;;;;;;;0.00;0.00;;;;;;;;;;5114326;28;20103;-89
2022/06/23 10:53:57;;;;;;;0.00;0.00;;;;;;;;;;5110243;28;20027;-88
2022/06/23 10:56:40;;;;;;;0.28;0.28;;;;;;;;;;5041848;28;20047;-89
2022/06/23 10:59:17;;;;;;;0.30;0.30;;;;;;;;;;5095395;28;20031;-85
2022/06/23 11:02:08;;;;;;;0.10;0.10;;;;;;;;;;5111825;28;20023;-82
2022/06/23 11:04:47;;;;;;;0.15;0.15;;;;;;;;;;5089071;28;20114;-81
2022/06/23 11:07:23;;;;;;;;;;;;;;;;;;5108104;28;20023;-82
2022/06/23 11:10:02;;;;;;;0.00;0.00;;;;;;;;;;5110307;28;19968;-80
2022/06/23 11:13:05;;;;;;;0.10;0.10;;;;;;;;;;5104660;28;20054;-83
2022/06/23 11:15:50;;;;;;;0.70;0.22;;;;;;;;;;5105881;28;20034;-84
2022/06/23 11:19:15;;;;;;;4.20;3.35;;;;;;;;;;5093418;28;20036;-87
2022/06/23 11:22:12;;;;;;;3.78;3.25;;;;;;;;;;5101219;28;20187;-86
2022/06/23 11:25:10;;;;;;;8.63;3.53;;;;;;;;;;5056796;28;20036;-85
2022/06/23 11:27:38;;;;;;;4.20;3.30;;;;;;;;;;5061569;28;20150;-88
2022/06/23 11:30:04;;;;;;;3.78;3.38;;;;;;;;;;5109509;28;20515;-89
2022/06/23 11:32:42;;;;;;;3.47;2.90;;;;;;;;;;5094189;28;20032;-87
2022/06/23 11:35:29;;;;;;;4.50;2.80;;;;;;;;;;5092808;28;20027;-90
2022/06/23 11:38:23;;;;;;;3.65;2.80;;;;;;;;;;5093870;28;20156;-85
2022/06/23 11:41:16;;;;;;;4.13;2.83;;;;;;;;;;5110107;28;20032;-87
2022/06/23 11:43:59;;;;;;;4.60;2.45;;;;;;;;;;5109078;28;20497;-92
2022/06/23 11:46:38;;;;;;;3.55;1.98;;;;;;;;;;5111070;28;20019;-88
2022/06/23 11:49:09;;;;;;;3.43;2.10;;;;;;;;;;5107312;28;20357;-89
2022/06/23 11:51:37;;;;;;;4.05;1.80;;;;;;;;;;5090656;28;20364;-90
2022/06/23 11:54:48;;;;;;;4.18;1.90;;;;;;;;;;5090417;28;20055;-88
2022/06/23 11:57:48;;;;;;;4.63;1.70;;;;;;;;;;5081629;28;20365;-88
2022/06/23 12:00:17;;;;;;;2.17;1.52;;;;;;;;;;5088385;28;20066;-87
2022/06/23 12:03:06;;;;;;;2.85;2.03;;;;;;;;;;5108115;28;20051;-89
2022/06/23 12:05:47;;;;;;;3.50;2.05;;;;;;;;;;5090400;28;20122;-87
2022/06/23 12:08:27;;;;;;;2.75;1.52;;;;;;;;;;5090909;28;20035;-86
2022/06/23 12:10:53;;;;;;;2.47;1.55;;;;;;;;;;5109282;28;20020;-84
2022/06/23 12:13:18;;;;;;;4.07;1.70;;;;;;;;;;5090994;28;20152;-85
2022/06/23 12:15:49;;;;;;;4.00;1.98;;;;;;;;;;5107693;28;20028;-86
2022/06/23 12:18:26;;;;;;;4.07;1.60;;;;;;;;;;5109750;28;20027;-87
2022/06/23 12:21:09;;;;;;;3.30;1.58;;;;;;;;;;5106516;28;20024;-90
2022/06/23 12:24:09;;;;;;;3.13;1.50;;;;;;;;;;5091495;28;20155;-87
2022/06/23 12:26:49;;;;;;;3.35;1.85;;;;;;;;;;5085271;28;20156;-89
2022/06/23 12:29:35;;;;;;;3.22;1.65;;;;;;;;;;5090670;28;20459;-87
2022/06/23 12:32:01;;;;;;;3.72;2.20;;;;;;;;;;5108658;28;20111;-87
2022/06/23 12:34:48;;;;;;;3.05;2.10;;;;;;;;;;5109742;28;20051;-88
2022/06/23 12:37:25;;;;;;;4.97;2.20;;;;;;;;;;5110001;28;20103;-86
2022/06/23 12:39:53;;;;;;;4.03;2.15;;;;;;;;;;5049367;28;1153078;-88
2022/06/23 12:42:43;;;;;;;4.07;2.17;;;;;;;;;;5092525;28;20055;-86
2022/06/23 12:45:23;;;;;;;;;;;;;;;;;;5092052;28;20031;-88
2022/06/23 12:48:13;;;;;;;6.45;2.20;;;;;;;;;;5091945;28;19919;-85
2022/06/23 12:50:42;;;;;;;4.60;2.33;;;;;;;;;;5089271;28;20049;-85
2022/06/23 12:53:49;;;;;;;5.35;2.30;;;;;;;;;;5092435;28;20041;-87
2022/06/23 12:56:41;;;;;;;3.90;2.10;;;;;;;;;;5027367;28;20099;-90
2022/06/23 12:59:26;;;;;;;3.97;2.20;;;;;;;;;;5091195;28;20184;-87
2022/06/23 13:02:32;;;;;;;4.15;1.92;;;;;;;;;;5092751;28;20483;-87
2022/06/23 13:05:25;;;;;;;4.40;2.30;;;;;;;;;;5100815;28;20088;-90
2022/06/23 13:08:01;;;;;;;3.85;2.35;;;;;;;;;;5104746;28;20103;-85
2022/06/23 13:10:32;;;;;;;3.53;2.22;;;;;;;;;;5090792;28;20024;-84
2022/06/23 13:13:05;;;;;;;3.75;2.30;;;;;;;;;;5065088;28;20116;-86
2022/06/23 13:15:39;;;;;;;2.85;2.00;;;;;;;;;;5092589;28;20488;-85
2022/06/23 13:18:31;;;;;;;4.53;2.58;;;;;;;;;;5097787;28;20020;-85
2022/06/23 13:21:08;;;;;;;4.55;2.40;;;;;;;;;;5097767;28;20088;-87
2022/06/23 13:23:42;;;;;;;4.82;2.90;;;;;;;;;;5111869;28;20027;-84
2022/06/23 13:26:33;;;;;;;4.82;2.80;;;;;;;;;;5089483;28;20040;-86
2022/06/23 13:29:07;;;;;;;3.42;2.75;;;;;;;;;;5077249;28;20110;-87
2022/06/23 13:31:46;;;;;;;3.72;3.00;;;;;;;;;;5085166;28;20020;-85
2022/06/23 13:34:29;;;;;;;4.22;3.03;;;;;;;;;;5093578;28;20076;-90
2022/06/23 13:37:03;;;;;;;5.05;3.38;;;;;;;;;;5087728;28;20469;-85
2022/06/23 13:40:02;;;;;;;3.42;3.00;;;;;;;;;;5078853;28;20048;-89
2022/06/23 13:42:32;;;;;;;4.93;3.20;;;;;;;;;;5092845;28;20027;-89
2022/06/23 13:45:16;;;;;;;4.47;3.10;;;;;;;;;;5103160;28;20026;-87
2022/06/23 13:47:56;;;;;;;3.72;3.30;;;;;;;;;;5111834;28;20024;-87
2022/06/23 13:50:35;;;;;;;4.10;3.45;;;;;;;;;;5105465;28;20465;-86
2022/06/23 13:53:33;;;;;;;3.88;3.00;;;;;;;;;;5075325;28;20035;-88
2022/06/23 13:56:03;;;;;;;3.65;3.17;;;;;;;;;;5082663;28;20073;-88
2022/06/23 13:58:48;;;;;;;4.50;3.47;;;;;;;;;;5105787;28;20096;-90
2022/06/23 14:01:27;;;;;;;4.50;3.63;;;;;;;;;;5103225;28;20164;-88
2022/06/23 14:04:23;;;;;;;6.05;4.35;;;;;;;;;;5106244;28;20157;-86
2022/06/23 14:07:01;;;;;;;5.97;4.18;;;;;;;;;;5090480;28;20027;-86
2022/06/23 14:09:47;;;;;;;5.33;3.53;;;;;;;;;;5084247;28;20024;-89
2022/06/23 14:12:20;;;;;;;6.00;3.60;;;;;;;;;;5056478;28;20276;-88
2022/06/23 14:15:21;;;;;;;3.90;3.58;;;;;;;;;;5078978;28;20051;-87
2022/06/23 14:18:13;;;;;;;4.50;4.05;;;;;;;;;;5065403;28;20115;-87
2022/06/23 14:21:08;;;;;;;4.15;3.72;;;;;;;;;;5104312;28;20069;-86
2022/06/23 14:23:46;;;;;;;4.90;4.18;;;;;;;;;;5107749;28;20031;-87
2022/06/23 14:26:20;;;;;;;4.00;3.70;;;;;;;;;;5109107;28;20073;-86
2022/06/23 14:28:51;;;;;;;4.20;3.80;;;;;;;;;;5081851;28;20046;-89
2022/06/23 14:31:23;;;;;;;4.10;3.70;;;;;;;;;;5116636;27;20088;-87
2022/06/23 14:33:55;;;;;;;5.63;3.90;;;;;;;;;;5100742;28;20041;-87
2022/06/23 14:36:27;;;;;;;3.55;3.25;;;;;;;;;;5104440;28;20046;-85
2022/06/23 14:38:58;;;;;;;3.83;3.15;;;;;;;;;;5089470;28;20047;-88
2022/06/23 14:41:46;;;;;;;3.83;3.25;;;;;;;;;;5108432;28;20020;-88
2022/06/23 14:44:27;;;;;;;3.40;3.10;;;;;;;;;;5081305;28;20028;-87
2022/06/23 14:47:14;;;;;;;4.10;3.42;;;;;;;;;;5087301;28;20031;-89
2022/06/23 14:50:04;;;;;;;4.78;3.20;;;;;;;;;;5094271;28;20035;-89
2022/06/23 14:52:34;;;;;;;4.15;3.75;;;;;;;;;;5089422;28;20043;-86
2022/06/23 14:55:26;;;;;;;4.30;3.67;;;;;;;;;;5097897;28;20027;-86
2022/06/23 14:58:21;;;;;;;4.57;3.85;;;;;;;;;;5081722;28;20397;-89
2022/06/23 15:00:50;;;;;;;4.50;3.47;;;;;;;;;;5111754;28;20383;-86
2022/06/23 15:03:36;;;;;;;4.05;3.70;;;;;;;;;;5094047;28;20027;-87
2022/06/23 15:06:11;;;;;;;4.22;3.78;;;;;;;;;;5104546;28;20031;-86
2022/06/23 15:08:58;;;;;;;5.10;4.05;;;;;;;;;;5083350;28;20402;-86
2022/06/23 15:11:54;;;;;;;4.68;3.70;;;;;;;;;;5079086;28;20051;-88
2022/06/23 15:14:31;;;;;;;4.15;3.75;;;;;;;;;;5092704;28;20399;-89
2022/06/23 15:17:09;;;;;;;4.40;3.85;;;;;;;;;;5113391;28;20051;-88
2022/06/23 15:19:57;;;;;;;3.80;3.40;;;;;;;;;;5092973;28;20123;-90
2022/06/23 15:25:15;;;;;;;4.47;4.07;;;;;;;;;;5105186;28;20042;-89
2022/06/23 15:28:07;;;;;;;4.53;3.92;;;;;;;;;;5084797;28;20027;-89
2022/06/23 15:30:52;;;;;;;4.18;3.75;;;;;;;;;;5103726;28;20099;-92
2022/06/23 15:33:29;;;;;;;4.93;3.70;;;;;;;;;;5107161;28;20042;-87
2022/06/23 15:36:22;;;;;;;4.60;4.20;;;;;;;;;;5081043;28;20037;-86
2022/06/23 15:39:05;;;;;;;4.47;4.07;;;;;;;;;;5109904;28;20051;-87
2022/06/23 15:42:07;;;;;;;4.70;4.30;;;;;;;;;;5102610;28;20043;-89
2022/06/23 15:45:00;;;;;;;4.70;4.30;;;;;;;;;;5085323;28;20026;-86
2022/06/23 15:47:30;;;;;;;4.68;4.28;;;;;;;;;;5075963;28;20073;-86
2022/06/23 15:50:01;;;;;;;4.43;4.03;;;;;;;;;;5102646;28;20163;-89
2022/06/23 15:52:50;;;;;;;4.07;3.78;;;;;;;;;;5096453;28;20112;-87
2022/06/23 15:55:42;;;;;;;4.32;3.72;;;;;;;;;;5102274;28;20069;-87
2022/06/23 15:58:34;;;;;;;3.40;3.10;;;;;;;;;;5107944;28;20480;-87
2022/06/23 16:01:13;;;;;;;3.13;2.80;;;;;;;;;;5102405;28;20030;-86
2022/06/23 16:03:46;;;;;;;3.10;2.70;;;;;;;;;;5103287;28;20027;-88
2022/06/23 16:06:14;;;;;;;2.70;2.50;;;;;;;;;;5107903;28;20429;-85
2022/06/23 16:08:56;;;;;;;2.97;2.67;;;;;;;;;;5092235;28;20035;-88
2022/06/23 16:11:30;;;;;;;2.80;2.50;;;;;;;;;;5089909;28;20042;-84